createdAt,value
2019-05-25T00:02:16.508Z,15.70
2019-05-25T00:04:45.098Z,15.90
2019-05-25T00:07:13.662Z,15.80
2019-05-25T00:09:42.116Z,15.70
2019-05-25T00:12:10.012Z,15.80
2019-05-25T00:14:38.026Z,15.60
2019-05-25T00:17:06.414Z,15.50
2019-05-25T00:19:34.334Z,15.20
2019-05-25T00:22:02.416Z,15.30
2019-05-25T00:24:31.083Z,15.40
2019-05-25T00:26:59.164Z,15.20
2019-05-25T00:29:27.074Z,15.00
2019-05-25T00:31:55.103Z,14.80
2019-05-25T00:34:23.509Z,14.60
2019-05-25T00:36:51.687Z,14.60
2019-05-25T00:39:19.891Z,14.80
2019-05-25T00:41:47.995Z,14.90
2019-05-25T00:44:16.004Z,14.80
2019-05-25T00:46:43.919Z,14.60
2019-05-25T00:49:12.123Z,14.40
2019-05-25T00:51:40.231Z,14.30
2019-05-25T00:54:08.318Z,14.40
2019-05-25T00:56:36.347Z,14.50
2019-05-25T00:59:04.760Z,14.30
2019-05-25T01:01:32.711Z,14.20
2019-05-25T01:04:00.559Z,14.40
2019-05-25T01:06:28.562Z,14.50
2019-05-25T01:08:56.427Z,14.50
2019-05-25T01:11:25.334Z,14.40
2019-05-25T01:13:53.953Z,14.30
2019-05-25T01:16:22.486Z,14.40
2019-05-25T01:18:50.979Z,14.20
2019-05-25T01:21:19.509Z,14.20
2019-05-25T01:23:47.819Z,14.20
2019-05-25T01:26:16.585Z,14.30
2019-05-25T01:28:44.932Z,14.50
2019-05-25T01:31:12.911Z,14.60
2019-05-25T01:33:40.887Z,14.50
2019-05-25T01:36:08.824Z,14.50
2019-05-25T01:38:37.415Z,14.50
2019-05-25T01:41:05.388Z,14.30
2019-05-25T01:43:33.743Z,14.10
2019-05-25T01:46:01.778Z,14.30
2019-05-25T01:48:29.732Z,14.40
2019-05-25T01:50:57.639Z,14.30
2019-05-25T01:53:25.503Z,14.10
2019-05-25T01:55:53.580Z,14.00
2019-05-25T01:58:21.406Z,13.90
2019-05-25T02:00:49.277Z,14.10
2019-05-25T02:03:17.221Z,14.20
2019-05-25T02:05:45.127Z,13.90
2019-05-25T02:08:13.361Z,14.00
2019-05-25T02:10:41.359Z,14.00
2019-05-25T02:13:09.319Z,13.90
2019-05-25T02:15:37.263Z,13.70
2019-05-25T02:18:05.201Z,13.60
2019-05-25T02:20:33.287Z,13.60
2019-05-25T02:23:01.124Z,13.60
2019-05-25T02:25:29.071Z,13.50
2019-05-25T02:27:57.171Z,13.60
2019-05-25T02:30:26.550Z,13.50
2019-05-25T02:32:54.500Z,13.40
2019-05-25T02:35:26.764Z,13.30
2019-05-25T02:37:55.511Z,13.40
2019-05-25T02:40:23.829Z,13.40
2019-05-25T02:42:51.866Z,13.60
2019-05-25T02:45:19.959Z,13.60
2019-05-25T02:47:49.416Z,13.70
2019-05-25T02:50:18.419Z,13.80
2019-05-25T02:52:46.499Z,14.00
2019-05-25T02:55:14.814Z,13.90
2019-05-25T02:57:43.022Z,13.80
2019-05-25T03:00:11.517Z,13.80
2019-05-25T03:02:39.462Z,13.90
2019-05-25T03:05:07.603Z,13.70
2019-05-25T03:07:35.932Z,13.70
2019-05-25T03:10:04.943Z,13.80
2019-05-25T03:12:33.139Z,13.70
2019-05-25T03:15:01.163Z,13.90
2019-05-25T03:17:29.225Z,13.90
2019-05-25T03:19:57.393Z,13.70
2019-05-25T03:22:25.462Z,13.60
2019-05-25T03:24:53.457Z,13.50
2019-05-25T03:27:21.534Z,13.60
2019-05-25T03:29:49.528Z,13.60
2019-05-25T03:32:20.482Z,13.60
2019-05-25T03:34:48.564Z,13.50
2019-05-25T03:37:16.596Z,13.30
2019-05-25T03:39:44.551Z,13.30
2019-05-25T03:42:12.464Z,13.50
2019-05-25T03:44:40.335Z,13.70
2019-05-25T03:47:08.291Z,13.60
2019-05-25T03:49:37.112Z,13.60
2019-05-25T03:52:05.172Z,13.70
2019-05-25T03:54:33.078Z,13.60
2019-05-25T03:57:01.071Z,13.50
2019-05-25T03:59:28.992Z,13.50
2019-05-25T04:01:56.928Z,13.50
2019-05-25T04:04:24.898Z,13.40
2019-05-25T04:06:52.756Z,13.50
2019-05-25T04:09:21.022Z,13.50
2019-05-25T04:11:49.011Z,13.50
2019-05-25T04:14:16.833Z,13.70
2019-05-25T04:16:44.818Z,13.80
2019-05-25T04:19:12.700Z,13.70
2019-05-25T04:21:40.550Z,13.60
2019-05-25T04:24:14.574Z,13.70
2019-05-25T04:26:42.499Z,13.80
2019-05-25T04:29:10.716Z,13.70
2019-05-25T04:31:38.654Z,13.90
2019-05-25T04:34:07.110Z,14.00
2019-05-25T04:36:36.390Z,13.90
2019-05-25T04:39:06.689Z,13.90
2019-05-25T04:41:36.434Z,14.00
2019-05-25T04:44:04.392Z,14.10
2019-05-25T04:46:33.916Z,14.00
2019-05-25T04:49:01.810Z,13.80
2019-05-25T04:51:29.692Z,13.90
2019-05-25T04:53:57.686Z,14.10
2019-05-25T04:56:39.079Z,14.10
2019-05-25T04:58:55.575Z,14.00
2019-05-25T05:01:23.543Z,14.10
2019-05-25T05:03:51.586Z,14.30
2019-05-25T05:06:19.491Z,14.50
2019-05-25T05:08:47.661Z,14.60
2019-05-25T05:11:16.166Z,14.60
2019-05-25T05:13:44.207Z,14.80
2019-05-25T05:16:12.381Z,15.10
2019-05-25T05:18:40.541Z,15.20
2019-05-25T05:21:08.539Z,15.20
2019-05-25T05:23:38.655Z,15.30
2019-05-25T05:26:06.964Z,15.50
2019-05-25T05:28:34.821Z,15.40
2019-05-25T05:31:02.785Z,15.60
2019-05-25T05:33:30.634Z,15.80
2019-05-25T05:36:00.043Z,16.10
2019-05-25T05:38:29.592Z,17.00
2019-05-25T05:40:59.247Z,18.40
2019-05-25T05:43:29.035Z,19.50
2019-05-25T05:45:58.201Z,20.60
2019-05-25T05:48:27.582Z,21.40
2019-05-25T05:50:59.817Z,22.30
2019-05-25T05:53:27.739Z,22.50
2019-05-25T05:55:55.691Z,22.00
2019-05-25T05:58:23.865Z,21.50
2019-05-25T06:00:53.878Z,20.90
2019-05-25T06:03:21.862Z,21.50
2019-05-25T06:05:49.719Z,22.10
2019-05-25T06:08:18.095Z,22.50
2019-05-25T06:10:46.041Z,22.10
2019-05-25T06:13:13.992Z,21.60
2019-05-25T06:15:41.825Z,20.70
2019-05-25T06:18:09.859Z,20.90
2019-05-25T06:20:38.208Z,20.60
2019-05-25T06:23:08.642Z,20.90
2019-05-25T06:25:36.033Z,20.90
2019-05-25T06:28:03.934Z,20.90
2019-05-25T06:30:32.038Z,21.20
2019-05-25T06:33:00.309Z,21.70
2019-05-25T06:35:28.604Z,21.00
2019-05-25T06:37:56.523Z,20.00
2019-05-25T06:40:24.563Z,20.00
2019-05-25T06:42:52.471Z,19.70
2019-05-25T06:45:20.944Z,20.60
2019-05-25T06:47:48.866Z,21.90
2019-05-25T06:50:16.870Z,23.20
2019-05-25T06:52:44.789Z,22.00
2019-05-25T06:55:13.178Z,22.80
2019-05-25T06:57:43.521Z,22.30
2019-05-25T07:00:13.026Z,21.80
2019-05-25T07:02:42.089Z,22.30
2019-05-25T07:05:11.175Z,23.20
2019-05-25T07:07:40.263Z,23.50
2019-05-25T07:10:08.840Z,22.40
2019-05-25T07:12:37.150Z,20.90
2019-05-25T07:15:06.037Z,19.90
2019-05-25T07:17:34.010Z,19.80
2019-05-25T07:20:02.287Z,20.00
2019-05-25T07:22:30.864Z,20.20
2019-05-25T07:24:58.818Z,20.50
2019-05-25T07:27:26.776Z,20.70
2019-05-25T07:29:54.856Z,20.70
2019-05-25T07:32:22.487Z,20.20
2019-05-25T07:34:50.355Z,20.10
2019-05-25T07:37:21.068Z,20.30
2019-05-25T07:39:49.215Z,20.40
2019-05-25T07:42:19.952Z,20.80
2019-05-25T07:44:47.163Z,20.50
2019-05-25T07:47:15.321Z,20.20
2019-05-25T07:49:43.267Z,20.70
2019-05-25T07:52:11.306Z,20.60
2019-05-25T07:54:40.168Z,20.50
2019-05-25T07:57:08.118Z,20.40
2019-05-25T07:59:36.214Z,20.10
2019-05-25T08:02:04.452Z,19.60
2019-05-25T08:04:32.996Z,19.20
2019-05-25T08:07:01.044Z,19.20
2019-05-25T08:09:29.089Z,19.20
2019-05-25T08:11:58.619Z,19.50
2019-05-25T08:14:27.208Z,18.90
2019-05-25T08:16:56.097Z,19.50
2019-05-25T08:19:24.138Z,19.90
2019-05-25T08:21:53.440Z,20.20
2019-05-25T08:24:24.548Z,20.50
2019-05-25T08:26:54.219Z,20.30
2019-05-25T08:29:22.605Z,20.20
2019-05-25T08:31:52.122Z,20.30
2019-05-25T08:34:21.368Z,20.60
2019-05-25T08:36:53.336Z,21.00
2019-05-25T08:39:21.727Z,21.30
2019-05-25T08:41:49.765Z,21.60
2019-05-25T08:44:17.986Z,21.80
2019-05-25T08:46:47.138Z,21.50
2019-05-25T08:49:17.818Z,21.40
2019-05-25T08:51:46.599Z,21.80
2019-05-25T08:54:15.913Z,21.90
2019-05-25T08:56:45.487Z,21.50
2019-05-25T08:59:14.557Z,22.00
2019-05-25T09:01:44.003Z,22.50
2019-05-25T09:04:13.210Z,22.90
2019-05-25T09:06:42.466Z,23.10
2019-05-25T09:09:11.012Z,22.20
2019-05-25T09:11:39.977Z,22.00
2019-05-25T09:14:08.835Z,21.50
2019-05-25T09:16:37.572Z,21.40
2019-05-25T09:19:06.126Z,20.70
2019-05-25T09:21:34.182Z,20.30
2019-05-25T09:24:03.552Z,20.60
2019-05-25T09:26:32.041Z,20.90
2019-05-25T09:29:04.425Z,21.00
2019-05-25T09:31:30.777Z,21.20
2019-05-25T09:33:59.072Z,21.10
2019-05-25T09:36:27.686Z,21.40
2019-05-25T09:38:55.683Z,21.40
2019-05-25T09:41:23.817Z,21.10
2019-05-25T09:43:52.314Z,20.90
2019-05-25T09:46:20.531Z,21.30
2019-05-25T09:48:48.681Z,21.30
2019-05-25T09:51:16.631Z,21.40
2019-05-25T09:53:44.843Z,21.40
2019-05-25T09:56:13.014Z,21.00
2019-05-25T09:58:41.429Z,21.30
2019-05-25T10:01:09.783Z,21.60
2019-05-25T10:03:39.346Z,20.90
2019-05-25T10:06:12.260Z,21.30
2019-05-25T10:08:38.962Z,22.00
2019-05-25T10:11:07.986Z,22.00
2019-05-25T10:13:36.799Z,21.90
2019-05-25T10:16:05.745Z,21.30
2019-05-25T10:18:34.885Z,21.60
2019-05-25T10:21:03.475Z,21.90
2019-05-25T10:23:32.195Z,22.40
2019-05-25T10:26:01.225Z,22.50
2019-05-25T10:28:30.384Z,21.90
2019-05-25T10:30:58.407Z,22.10
2019-05-25T10:33:32.855Z,22.50
2019-05-25T10:36:01.555Z,22.80
2019-05-25T10:38:33.569Z,22.90
2019-05-25T10:41:01.947Z,23.10
2019-05-25T10:43:30.220Z,22.40
2019-05-25T10:45:59.451Z,22.30
2019-05-25T10:48:28.434Z,22.80
2019-05-25T10:50:58.311Z,23.10
2019-05-25T10:53:26.767Z,23.40
2019-05-25T10:55:55.971Z,23.30
2019-05-25T10:58:29.184Z,23.50
2019-05-25T11:00:57.395Z,22.90
2019-05-25T11:03:25.599Z,22.60
2019-05-25T11:05:55.020Z,23.00
2019-05-25T11:08:23.068Z,23.10
2019-05-25T11:10:51.432Z,22.40
2019-05-25T11:13:19.484Z,22.80
2019-05-25T11:15:47.966Z,22.50
2019-05-25T11:18:16.108Z,22.00
2019-05-25T11:20:44.320Z,21.90
2019-05-25T11:23:12.275Z,22.10
2019-05-25T11:25:40.322Z,22.10
2019-05-25T11:28:08.610Z,21.90
2019-05-25T11:30:36.662Z,22.60
2019-05-25T11:33:04.986Z,22.60
2019-05-25T11:35:33.185Z,22.30
2019-05-25T11:38:03.326Z,22.00
2019-05-25T11:40:32.261Z,22.60
2019-05-25T11:43:04.702Z,23.20
2019-05-25T11:45:33.402Z,23.10
2019-05-25T11:48:01.913Z,22.80
2019-05-25T11:50:30.943Z,22.40
2019-05-25T11:53:05.444Z,22.40
2019-05-25T11:55:31.807Z,22.30
2019-05-25T11:58:00.741Z,22.30
2019-05-25T12:00:28.979Z,22.30
2019-05-25T12:02:57.225Z,22.30
2019-05-25T12:05:25.748Z,22.20
2019-05-25T12:07:54.259Z,22.20
2019-05-25T12:10:23.005Z,22.80
2019-05-25T12:12:51.074Z,23.40
2019-05-25T12:15:19.261Z,24.10
2019-05-25T12:17:47.300Z,24.30
2019-05-25T12:20:16.040Z,24.10
2019-05-25T12:22:43.955Z,23.70
2019-05-25T12:25:12.378Z,23.60
2019-05-25T12:27:40.926Z,23.60
2019-05-25T12:30:11.327Z,22.70
2019-05-25T12:32:39.600Z,22.50
2019-05-25T12:35:09.054Z,22.40
2019-05-25T12:37:37.403Z,22.40
2019-05-25T12:40:05.728Z,22.20
2019-05-25T12:42:33.872Z,22.20
2019-05-25T12:45:02.088Z,22.50
2019-05-25T12:47:30.314Z,22.90
2019-05-25T12:49:58.655Z,22.90
2019-05-25T12:52:27.356Z,22.30
2019-05-25T12:54:55.375Z,22.80
2019-05-25T12:57:24.231Z,23.20
2019-05-25T12:59:52.525Z,23.00
2019-05-25T13:02:20.785Z,22.70
2019-05-25T13:04:48.884Z,22.70
2019-05-25T13:07:17.736Z,22.90
2019-05-25T13:09:45.958Z,22.90
2019-05-25T13:12:16.477Z,23.00
2019-05-25T13:14:44.566Z,22.70
2019-05-25T13:17:12.813Z,22.30
2019-05-25T13:19:40.931Z,21.90
2019-05-25T13:22:09.734Z,22.10
2019-05-25T13:24:38.283Z,22.40
2019-05-25T13:27:07.583Z,22.50
2019-05-25T13:29:36.080Z,22.70
2019-05-25T13:32:04.434Z,22.90
2019-05-25T13:34:32.637Z,23.10
2019-05-25T13:37:01.855Z,23.30
2019-05-25T13:39:30.787Z,23.60
2019-05-25T13:41:58.805Z,23.50
2019-05-25T13:44:27.362Z,22.80
2019-05-25T13:46:56.489Z,22.30
2019-05-25T13:49:24.398Z,22.30
2019-05-25T13:51:52.837Z,22.50
2019-05-25T13:54:21.189Z,22.30
2019-05-25T13:56:49.526Z,22.40
2019-05-25T13:59:17.742Z,22.50
2019-05-25T14:01:45.876Z,22.30
2019-05-25T14:04:13.899Z,22.30
2019-05-25T14:06:42.646Z,22.40
2019-05-25T14:09:11.136Z,22.40
2019-05-25T14:11:39.427Z,22.90
2019-05-25T14:14:07.742Z,23.00
2019-05-25T14:16:35.978Z,22.60
2019-05-25T14:19:04.310Z,22.50
2019-05-25T14:21:32.484Z,22.60
2019-05-25T14:24:00.828Z,22.70
2019-05-25T14:26:29.406Z,22.70
2019-05-25T14:28:57.856Z,22.80
2019-05-25T14:31:26.079Z,22.80
2019-05-25T14:33:54.340Z,22.90
2019-05-25T14:36:22.447Z,23.00
2019-05-25T14:38:50.423Z,23.20
2019-05-25T14:41:18.669Z,23.10
2019-05-25T14:43:46.793Z,22.90
2019-05-25T14:46:27.508Z,23.00
2019-05-25T14:48:45.689Z,23.20
2019-05-25T14:51:14.423Z,23.00
2019-05-25T14:53:42.483Z,22.80
2019-05-25T14:56:10.512Z,22.70
2019-05-25T14:58:38.742Z,23.10
2019-05-25T15:01:06.839Z,23.70
2019-05-25T15:03:34.919Z,23.80
2019-05-25T15:06:02.931Z,23.70
2019-05-25T15:08:31.029Z,23.80
2019-05-25T15:10:58.996Z,24.00
2019-05-25T15:13:27.434Z,23.50
2019-05-25T15:15:55.697Z,23.50
2019-05-25T15:18:23.824Z,23.90
2019-05-25T15:20:51.939Z,23.50
2019-05-25T15:23:20.167Z,23.30
2019-05-25T15:25:48.414Z,23.30
2019-05-25T15:28:17.326Z,23.70
2019-05-25T15:30:45.319Z,23.20
2019-05-25T15:33:13.667Z,23.10
2019-05-25T15:35:42.502Z,23.30
2019-05-25T15:38:11.217Z,23.00
2019-05-25T15:40:39.490Z,23.20
2019-05-25T15:43:07.684Z,23.10
2019-05-25T15:45:35.964Z,22.70
2019-05-25T15:48:04.374Z,23.00
2019-05-25T15:50:33.761Z,23.20
2019-05-25T15:53:02.135Z,23.50
2019-05-25T15:55:30.711Z,23.80
2019-05-25T15:57:58.987Z,23.30
2019-05-25T16:00:46.407Z,22.70
2019-05-25T16:03:18.387Z,22.60
2019-05-25T16:05:47.811Z,23.00
2019-05-25T16:08:17.858Z,23.50
2019-05-25T16:10:46.619Z,23.70
2019-05-25T16:13:15.242Z,23.80
2019-05-25T16:15:43.504Z,23.60
2019-05-25T16:18:12.375Z,23.20
2019-05-25T16:20:40.567Z,23.50
2019-05-25T16:23:08.753Z,23.50
2019-05-25T16:25:37.078Z,23.50
2019-05-25T16:28:05.472Z,23.50
2019-05-25T16:30:33.534Z,23.70
2019-05-25T16:33:17.575Z,23.70
2019-05-25T16:35:32.397Z,23.50
2019-05-25T16:38:00.733Z,22.80
2019-05-25T16:40:29.454Z,22.60
2019-05-25T16:42:58.232Z,22.50
2019-05-25T16:45:26.440Z,22.40
2019-05-25T16:47:55.130Z,22.60
2019-05-25T16:50:23.277Z,22.70
2019-05-25T16:52:51.883Z,22.40
2019-05-25T16:55:20.327Z,22.40
2019-05-25T16:57:48.907Z,22.30
2019-05-25T17:00:27.339Z,22.50
2019-05-25T17:02:57.311Z,22.80
2019-05-25T17:05:27.352Z,22.70
2019-05-25T17:07:56.598Z,22.40
2019-05-25T17:10:25.224Z,22.50
2019-05-25T17:12:53.668Z,22.60
2019-05-25T17:15:22.066Z,22.70
2019-05-25T17:17:50.356Z,22.70
2019-05-25T17:20:18.882Z,22.70
2019-05-25T17:22:47.284Z,22.80
2019-05-25T17:25:16.316Z,22.90
2019-05-25T17:27:44.497Z,22.80
2019-05-25T17:30:15.351Z,22.60
2019-05-25T17:32:43.310Z,22.70
2019-05-25T17:35:11.593Z,22.70
2019-05-25T17:37:39.573Z,22.90
2019-05-25T17:40:07.967Z,23.00
2019-05-25T17:42:36.257Z,22.80
2019-05-25T17:45:05.936Z,22.60
2019-05-25T17:47:34.118Z,22.50
2019-05-25T17:50:02.264Z,22.30
2019-05-25T17:52:30.693Z,22.20
2019-05-25T17:54:58.628Z,22.20
2019-05-25T17:57:26.647Z,22.20
2019-05-25T17:59:54.734Z,22.10
2019-05-25T18:02:22.747Z,22.00
2019-05-25T18:04:50.841Z,22.10
2019-05-25T18:07:18.831Z,22.10
2019-05-25T18:09:47.621Z,22.10
2019-05-25T18:12:15.704Z,22.00
2019-05-25T18:14:44.153Z,22.00
2019-05-25T18:17:12.187Z,21.80
2019-05-25T18:19:40.286Z,21.60
2019-05-25T18:22:08.580Z,21.50
2019-05-25T18:24:36.659Z,21.40
2019-05-25T18:27:04.823Z,21.40
2019-05-25T18:29:34.530Z,21.30
2019-05-25T18:32:02.541Z,21.20
2019-05-25T18:34:30.677Z,21.20
2019-05-25T18:36:59.086Z,21.10
2019-05-25T18:39:27.298Z,21.10
2019-05-25T18:41:57.192Z,21.00
2019-05-25T18:44:25.352Z,21.00
2019-05-25T18:46:53.501Z,20.90
2019-05-25T18:49:21.562Z,20.80
2019-05-25T18:51:49.586Z,20.80
2019-05-25T18:54:18.303Z,20.60
2019-05-25T18:56:47.333Z,20.50
2019-05-25T18:59:15.445Z,20.40
2019-05-25T19:01:44.013Z,20.30
2019-05-25T19:04:12.156Z,20.10
2019-05-25T19:06:40.382Z,20.00
2019-05-25T19:09:10.486Z,19.90
2019-05-25T19:11:38.722Z,19.80
2019-05-25T19:14:07.285Z,19.70
2019-05-25T19:16:35.714Z,19.60
2019-05-25T19:19:03.960Z,19.50
2019-05-25T19:21:32.615Z,19.30
2019-05-25T19:24:00.778Z,19.00
2019-05-25T19:26:28.929Z,18.90
2019-05-25T19:28:57.007Z,18.70
2019-05-25T19:31:25.696Z,18.50
2019-05-25T19:33:53.866Z,18.40
2019-05-25T19:36:22.141Z,18.20
2019-05-25T19:38:50.285Z,18.10
2019-05-25T19:41:18.352Z,18.30
2019-05-25T19:43:47.572Z,18.40
2019-05-25T19:46:15.679Z,18.40
2019-05-25T19:48:43.849Z,18.50
2019-05-25T19:51:12.120Z,18.50
2019-05-25T19:53:40.578Z,18.50
2019-05-25T19:56:08.651Z,18.50
2019-05-25T19:58:36.802Z,18.30
2019-05-25T20:01:04.879Z,18.20
2019-05-25T20:03:32.866Z,18.10
2019-05-25T20:06:01.206Z,18.00
2019-05-25T20:08:29.517Z,17.70
2019-05-25T20:10:58.002Z,17.60
2019-05-25T20:13:26.125Z,17.60
2019-05-25T20:15:54.369Z,17.50
2019-05-25T20:18:22.420Z,17.30
2019-05-25T20:20:50.420Z,17.10
2019-05-25T20:23:18.511Z,17.10
2019-05-25T20:25:46.951Z,17.00
2019-05-25T20:28:14.954Z,16.70
2019-05-25T20:30:43.410Z,16.60
2019-05-25T20:33:11.415Z,16.50
2019-05-25T20:35:39.544Z,16.50
2019-05-25T20:38:07.584Z,16.60
2019-05-25T20:40:35.946Z,16.60
2019-05-25T20:43:03.996Z,16.30
2019-05-25T20:45:32.345Z,16.20
2019-05-25T20:48:00.847Z,16.20
2019-05-25T20:50:28.960Z,16.10
2019-05-25T20:52:56.997Z,16.20
2019-05-25T20:55:25.056Z,16.00
2019-05-25T20:57:53.120Z,15.90
2019-05-25T21:00:24.184Z,15.90
2019-05-25T21:03:05.275Z,15.90
2019-05-25T21:05:21.560Z,16.00
2019-05-25T21:07:50.014Z,15.70
2019-05-25T21:10:18.226Z,15.80
2019-05-25T21:12:46.435Z,15.60
2019-05-25T21:15:16.322Z,15.60
2019-05-25T21:17:44.393Z,15.60
2019-05-25T21:20:13.365Z,15.60
2019-05-25T21:22:41.310Z,15.40
2019-05-25T21:25:09.698Z,15.20
2019-05-25T21:27:37.856Z,15.20
2019-05-25T21:30:07.593Z,15.20
2019-05-25T21:32:35.615Z,15.20
2019-05-25T21:35:03.645Z,15.10
2019-05-25T21:37:32.081Z,14.90
2019-05-25T21:40:00.418Z,15.00
2019-05-25T21:42:28.468Z,15.10
2019-05-25T21:44:56.359Z,15.10
2019-05-25T21:47:24.517Z,15.10
2019-05-25T21:49:52.947Z,15.10
2019-05-25T21:52:20.961Z,14.90
2019-05-25T21:54:50.533Z,14.80
2019-05-25T21:57:18.465Z,14.90
2019-05-25T21:59:46.342Z,15.00
2019-05-25T22:02:14.794Z,15.00
2019-05-25T22:04:42.999Z,15.10
2019-05-25T22:07:11.129Z,14.80
2019-05-25T22:09:39.055Z,14.70
2019-05-25T22:12:07.214Z,14.70
2019-05-25T22:14:35.270Z,14.70
2019-05-25T22:17:03.882Z,14.70
2019-05-25T22:19:31.896Z,14.90
2019-05-25T22:22:02.516Z,14.90
2019-05-25T22:24:30.418Z,14.70
2019-05-25T22:26:58.293Z,14.70
2019-05-25T22:29:26.263Z,14.60
2019-05-25T22:31:54.372Z,14.50
2019-05-25T22:34:22.301Z,14.60
2019-05-25T22:36:50.243Z,14.60
2019-05-25T22:39:18.145Z,14.50
2019-05-25T22:41:46.162Z,14.50
2019-05-25T22:44:14.143Z,14.40
2019-05-25T22:46:42.370Z,14.30
2019-05-25T22:49:10.518Z,14.20
2019-05-25T22:51:38.882Z,14.20
2019-05-25T22:54:06.858Z,14.40
2019-05-25T22:56:34.997Z,14.50
2019-05-25T22:59:03.345Z,14.60
2019-05-25T23:01:31.567Z,14.70
2019-05-25T23:04:00.137Z,14.50
2019-05-25T23:06:28.171Z,14.50
2019-05-25T23:08:56.465Z,14.50
2019-05-25T23:11:24.488Z,14.60
2019-05-25T23:13:52.745Z,14.60
2019-05-25T23:16:20.722Z,14.40
2019-05-25T23:18:48.771Z,14.50
2019-05-25T23:21:16.666Z,14.50
2019-05-25T23:23:44.846Z,14.80
2019-05-25T23:26:12.915Z,14.70
2019-05-25T23:28:40.840Z,14.60
2019-05-25T23:31:08.865Z,14.50
2019-05-25T23:33:36.980Z,14.50
2019-05-25T23:36:04.929Z,14.50
2019-05-25T23:38:33.012Z,14.20
2019-05-25T23:41:03.354Z,14.30
2019-05-25T23:43:31.261Z,14.20
2019-05-25T23:45:59.686Z,14.20
2019-05-25T23:48:27.671Z,14.00
2019-05-25T23:50:55.605Z,13.80
2019-05-25T23:53:23.710Z,13.80
2019-05-25T23:55:51.992Z,13.70
2019-05-25T23:58:19.883Z,13.60
